Time;durP1;ratioP1;P1;durP2;ratioP2;P2;SDS_P1;SDS_P2;PMS_P1;PMS_P2;Temp;Humidity;BMP_temperature;BMP_pressure;BME280_temperature;BME280_humidity;BME280_pressure;Samples;Min_cycle;Max_cycle;Signal;HPM_P1;HPM_P2
2023/01/19 00:00:23;;;;;;;9.35;8.95;;;;;;;;;;5077664;28;20559;-71
2023/01/19 00:02:49;;;;;;;9.48;9.07;;;;;;;;;;5100519;28;20070;-71
2023/01/19 00:05:14;;;;;;;9.60;9.18;;;;;;;;;;5099173;28;20068;-72
2023/01/19 00:07:40;;;;;;;9.32;8.93;;;;;;;;;;5098881;28;20016;-72
2023/01/19 00:10:06;;;;;;;9.35;8.95;;;;;;;;;;5082589;28;20042;-72
2023/01/19 00:12:31;;;;;;;8.90;8.50;;;;;;;;;;5099951;28;20462;-71
2023/01/19 00:14:57;;;;;;;9.75;9.25;;;;;;;;;;5101145;28;20060;-71
2023/01/19 00:17:22;;;;;;;9.20;8.80;;;;;;;;;;5106501;28;20089;-72
2023/01/19 00:19:47;;;;;;;9.43;9.02;;;;;;;;;;5063016;28;20024;-71
2023/01/19 00:22:13;;;;;;;9.13;8.73;;;;;;;;;;5082385;28;20495;-70
2023/01/19 00:24:38;;;;;;;9.10;8.70;;;;;;;;;;5077499;28;20107;-73
2023/01/19 00:27:03;;;;;;;9.65;9.23;;;;;;;;;;5085203;28;20020;-72
2023/01/19 00:29:32;;;;;;;9.45;9.05;;;;;;;;;;5099740;28;20023;-72
2023/01/19 00:31:58;;;;;;;9.82;9.35;;;;;;;;;;5084959;28;20069;-72
2023/01/19 00:34:23;;;;;;;9.18;8.77;;;;;;;;;;5082178;28;20046;-72
2023/01/19 00:36:49;;;;;;;9.88;9.38;;;;;;;;;;5105346;28;20487;-71
2023/01/19 00:39:14;;;;;;;9.40;9.00;;;;;;;;;;5102295;28;20031;-72
2023/01/19 00:44:23;;;;;;;9.20;8.80;;;;;;;;;;5105337;28;20072;-71
2023/01/19 00:46:48;;;;;;;9.68;9.23;;;;;;;;;;5107224;28;20263;-72
2023/01/19 00:49:14;;;;;;;9.63;9.23;;;;;;;;;;5102882;28;20042;-72
2023/01/19 00:51:39;;;;;;;9.20;8.80;;;;;;;;;;5082739;28;20472;-71
2023/01/19 00:54:09;;;;;;;9.93;9.43;;;;;;;;;;5088238;28;20027;-72
2023/01/19 00:56:34;;;;;;;9.23;8.82;;;;;;;;;;5102362;28;20409;-71
2023/01/19 00:59:00;;;;;;;9.43;9.02;;;;;;;;;;5080359;28;20102;-72
2023/01/19 01:01:25;;;;;;;9.10;8.70;;;;;;;;;;5103537;28;20020;-71
2023/01/19 01:03:52;;;;;;;9.40;9.00;;;;;;;;;;5099560;28;20510;-73
2023/01/19 01:06:18;;;;;;;9.50;9.10;;;;;;;;;;5094221;28;20150;-71
2023/01/19 01:08:43;;;;;;;9.20;8.80;;;;;;;;;;5102301;28;20031;-72
2023/01/19 01:11:08;;;;;;;9.68;9.27;;;;;;;;;;5099397;28;20539;-71
2023/01/19 01:13:35;;;;;;;9.50;9.10;;;;;;;;;;5088932;28;20118;-72
2023/01/19 01:16:00;;;;;;;9.40;9.00;;;;;;;;;;5083722;28;20061;-72
2023/01/19 01:18:27;;;;;;;9.40;9.00;;;;;;;;;;5097424;28;20016;-72
2023/01/19 01:20:52;;;;;;;9.20;8.80;;;;;;;;;;5080336;28;20024;-71
2023/01/19 01:23:21;;;;;;;9.40;9.00;;;;;;;;;;5099428;28;20027;-71
2023/01/19 01:25:47;;;;;;;9.25;8.85;;;;;;;;;;5102078;28;20019;-73
2023/01/19 01:28:12;;;;;;;9.40;9.00;;;;;;;;;;5100382;28;20027;-72
2023/01/19 01:30:39;;;;;;;9.20;8.80;;;;;;;;;;5102844;28;20023;-73
2023/01/19 01:33:05;;;;;;;9.30;8.90;;;;;;;;;;5103447;28;20042;-72
2023/01/19 01:35:32;;;;;;;9.65;9.25;;;;;;;;;;5102287;28;20028;-72
2023/01/19 01:37:58;;;;;;;9.18;8.77;;;;;;;;;;5086268;28;20024;-71
2023/01/19 01:40:24;;;;;;;9.23;8.82;;;;;;;;;;5100180;28;20073;-72
2023/01/19 01:42:49;;;;;;;9.50;9.10;;;;;;;;;;5109569;28;20024;-72
2023/01/19 01:45:17;;;;;;;9.05;8.65;;;;;;;;;;5088039;28;20016;-71
2023/01/19 01:47:44;;;;;;;10.00;9.50;;;;;;;;;;5101204;28;20058;-71
2023/01/19 01:50:14;;;;;;;9.50;9.10;;;;;;;;;;5085031;28;20043;-70
2023/01/19 01:52:42;;;;;;;9.18;8.77;;;;;;;;;;5100985;28;20077;-71
2023/01/19 01:55:08;;;;;;;9.57;9.15;;;;;;;;;;5093252;28;20094;-71
2023/01/19 01:57:35;;;;;;;9.30;8.90;;;;;;;;;;5101480;28;20020;-71
2023/01/19 02:00:02;;;;;;;9.10;8.70;;;;;;;;;;5098425;28;20053;-71
2023/01/19 02:05:18;;;;;;;9.40;9.00;;;;;;;;;;5098677;28;20406;-70
2023/01/19 02:13:24;;;;;;;9.30;8.90;;;;;;;;;;5098433;28;20031;-71
2023/01/19 02:15:53;;;;;;;9.68;9.27;;;;;;;;;;5101205;28;20028;-73
2023/01/19 02:18:20;;;;;;;9.57;9.18;;;;;;;;;;5099880;28;20108;-73
2023/01/19 02:21:08;;;;;;;9.40;9.00;;;;;;;;;;5083972;28;20030;-72
2023/01/19 02:23:44;;;;;;;9.23;8.82;;;;;;;;;;5059124;28;20041;-72
2023/01/19 02:26:11;;;;;;;10.30;9.80;;;;;;;;;;5098590;28;20012;-72
2023/01/19 02:28:40;;;;;;;9.38;8.98;;;;;;;;;;5107839;28;20470;-72
2023/01/19 02:31:05;;;;;;;9.43;9.02;;;;;;;;;;5099895;28;20446;-72
2023/01/19 02:33:30;;;;;;;9.10;8.70;;;;;;;;;;5099056;28;20047;-72
2023/01/19 02:35:56;;;;;;;9.80;9.35;;;;;;;;;;5086441;28;20030;-71
2023/01/19 02:38:23;;;;;;;9.45;9.05;;;;;;;;;;5095426;28;20058;-72
2023/01/19 02:40:48;;;;;;;9.55;9.15;;;;;;;;;;5082900;28;20031;-72
2023/01/19 02:43:14;;;;;;;9.63;9.23;;;;;;;;;;5101560;28;20012;-72
2023/01/19 02:45:41;;;;;;;9.50;9.10;;;;;;;;;;5100644;28;20007;-71
2023/01/19 02:48:06;;;;;;;11.02;10.43;;;;;;;;;;5096431;28;20479;-72
2023/01/19 02:50:35;;;;;;;9.50;9.10;;;;;;;;;;5101307;28;20024;-71
2023/01/19 02:53:08;;;;;;;9.90;9.40;;;;;;;;;;5103405;28;20024;-72
2023/01/19 02:55:33;;;;;;;9.20;8.80;;;;;;;;;;5102961;28;20073;-71
2023/01/19 02:57:58;;;;;;;9.52;9.13;;;;;;;;;;5084953;28;20051;-70
2023/01/19 03:00:43;;;;;;;9.35;8.95;;;;;;;;;;5083832;28;20076;-72
2023/01/19 03:03:13;;;;;;;9.88;9.38;;;;;;;;;;5099951;28;20019;-72
2023/01/19 03:05:38;;;;;;;9.55;9.15;;;;;;;;;;5097617;28;20144;-72
2023/01/19 03:08:16;;;;;;;10.05;9.55;;;;;;;;;;5100492;28;20480;-71
2023/01/19 03:10:46;;;;;;;9.13;8.73;;;;;;;;;;5100549;28;20068;-72
2023/01/19 03:13:17;;;;;;;9.60;9.20;;;;;;;;;;5100871;28;20023;-72
2023/01/19 03:15:48;;;;;;;9.32;8.93;;;;;;;;;;5099757;28;20148;-72
2023/01/19 03:18:15;;;;;;;10.07;9.57;;;;;;;;;;5096331;28;20102;-72
2023/01/19 03:20:41;;;;;;;9.88;9.38;;;;;;;;;;5085042;28;20077;-72
2023/01/19 03:23:09;;;;;;;9.73;9.30;;;;;;;;;;5092309;28;20019;-71
2023/01/19 03:25:35;;;;;;;9.27;8.88;;;;;;;;;;5100353;28;20096;-72
2023/01/19 03:28:00;;;;;;;9.98;9.48;;;;;;;;;;5083803;28;20509;-71
2023/01/19 03:30:28;;;;;;;10.20;9.70;;;;;;;;;;5083455;28;20024;-71
2023/01/19 03:32:55;;;;;;;9.70;9.30;;;;;;;;;;5104146;28;20059;-71
2023/01/19 03:35:23;;;;;;;9.40;9.00;;;;;;;;;;5101368;28;20033;-73
2023/01/19 03:37:50;;;;;;;9.80;9.30;;;;;;;;;;5094020;28;20078;-72
2023/01/19 03:40:16;;;;;;;9.40;9.00;;;;;;;;;;5100124;28;20539;-73
2023/01/19 03:42:41;;;;;;;9.30;8.90;;;;;;;;;;5096198;28;20024;-72
2023/01/19 03:45:07;;;;;;;9.55;9.13;;;;;;;;;;5103328;28;20046;-71
2023/01/19 03:47:34;;;;;;;9.32;8.93;;;;;;;;;;5101308;28;20028;-72
2023/01/19 03:50:01;;;;;;;9.30;8.90;;;;;;;;;;5099629;28;20031;-71
2023/01/19 03:52:27;;;;;;;9.50;9.10;;;;;;;;;;5099546;28;20019;-72
2023/01/19 03:54:53;;;;;;;8.95;8.55;;;;;;;;;;5096194;28;20741;-73
2023/01/19 03:57:18;;;;;;;9.35;8.95;;;;;;;;;;5100497;28;20024;-73
2023/01/19 03:59:43;;;;;;;9.48;9.07;;;;;;;;;;5095843;28;20034;-72
2023/01/19 04:02:09;;;;;;;9.60;9.20;;;;;;;;;;5102607;28;20027;-72
2023/01/19 04:04:34;;;;;;;10.23;9.73;;;;;;;;;;5100887;28;20016;-72
2023/01/19 04:07:00;;;;;;;9.82;9.32;;;;;;;;;;5100169;28;20053;-72
2023/01/19 04:09:26;;;;;;;9.13;8.73;;;;;;;;;;5088881;28;20019;-72
2023/01/19 04:11:51;;;;;;;9.25;8.85;;;;;;;;;;5111610;28;20024;-72
2023/01/19 04:14:16;;;;;;;9.45;9.05;;;;;;;;;;5087583;28;20023;-72
2023/01/19 04:16:42;;;;;;;9.60;9.15;;;;;;;;;;5106702;28;20027;-72
2023/01/19 04:19:07;;;;;;;9.90;9.40;;;;;;;;;;5103451;28;20011;-72
2023/01/19 04:21:32;;;;;;;9.00;8.60;;;;;;;;;;5085240;28;20020;-72
2023/01/19 04:23:58;;;;;;;9.43;9.02;;;;;;;;;;5105423;28;20020;-72
2023/01/19 04:26:24;;;;;;;9.45;9.05;;;;;;;;;;5106552;28;20019;-72
2023/01/19 04:28:49;;;;;;;9.38;8.98;;;;;;;;;;5097531;28;20446;-72
2023/01/19 04:31:15;;;;;;;9.50;9.10;;;;;;;;;;5091808;28;20062;-72
2023/01/19 04:33:40;;;;;;;9.30;8.90;;;;;;;;;;5107368;28;20023;-72
2023/01/19 04:36:05;;;;;;;9.82;9.32;;;;;;;;;;5081779;28;20015;-71
2023/01/19 04:38:31;;;;;;;9.45;9.05;;;;;;;;;;5107090;28;20378;-72
2023/01/19 04:40:56;;;;;;;10.07;9.57;;;;;;;;;;5095771;28;20032;-72
2023/01/19 04:43:22;;;;;;;9.40;9.00;;;;;;;;;;5105423;28;20027;-72
2023/01/19 04:45:48;;;;;;;9.90;9.40;;;;;;;;;;5098583;28;20024;-72
2023/01/19 04:48:13;;;;;;;9.68;9.20;;;;;;;;;;5107834;28;20020;-71
2023/01/19 04:50:40;;;;;;;9.20;8.80;;;;;;;;;;5106201;28;20043;-72
2023/01/19 04:53:05;;;;;;;10.18;9.68;;;;;;;;;;5097576;28;20024;-71
2023/01/19 04:55:31;;;;;;;9.00;8.60;;;;;;;;;;5100292;28;20520;-71
2023/01/19 04:57:56;;;;;;;10.38;9.88;;;;;;;;;;5107804;28;20028;-71
2023/01/19 05:00:22;;;;;;;9.57;9.18;;;;;;;;;;5104392;28;20052;-71
2023/01/19 05:02:47;;;;;;;9.95;9.45;;;;;;;;;;5110139;28;20467;-71
2023/01/19 05:05:13;;;;;;;10.25;9.75;;;;;;;;;;5105364;28;20490;-71
2023/01/19 05:07:38;;;;;;;9.43;9.02;;;;;;;;;;5110268;28;20095;-71
2023/01/19 05:10:05;;;;;;;9.57;9.18;;;;;;;;;;5078978;28;20032;-70
2023/01/19 05:12:30;;;;;;;9.77;9.30;;;;;;;;;;5098886;28;20491;-71
2023/01/19 05:14:55;;;;;;;9.50;9.10;;;;;;;;;;5104462;28;20059;-70
2023/01/19 05:17:21;;;;;;;9.35;8.95;;;;;;;;;;5100209;28;20019;-71
2023/01/19 05:19:47;;;;;;;9.40;9.00;;;;;;;;;;5092228;28;20024;-71
2023/01/19 05:22:13;;;;;;;9.95;9.45;;;;;;;;;;5081506;28;20027;-75
2023/01/19 05:24:38;;;;;;;9.88;9.43;;;;;;;;;;5075003;28;20016;-73
2023/01/19 05:27:04;;;;;;;9.48;9.07;;;;;;;;;;5105856;28;20462;-73
2023/01/19 05:29:29;;;;;;;10.07;9.57;;;;;;;;;;5099862;28;20020;-72
2023/01/19 05:31:54;;;;;;;10.38;9.88;;;;;;;;;;5082833;28;20024;-72
2023/01/19 05:34:20;;;;;;;9.82;9.32;;;;;;;;;;5102594;28;20035;-73
2023/01/19 05:36:45;;;;;;;10.05;9.55;;;;;;;;;;5078806;28;20024;-73
2023/01/19 05:39:10;;;;;;;9.95;9.45;;;;;;;;;;5074614;28;20031;-74
2023/01/19 05:41:36;;;;;;;11.07;10.48;;;;;;;;;;5093777;28;20009;-73
2023/01/19 05:44:01;;;;;;;10.57;10.07;;;;;;;;;;5101070;28;20028;-72
2023/01/19 05:46:26;;;;;;;10.07;9.57;;;;;;;;;;5096768;28;20016;-73
2023/01/19 05:48:51;;;;;;;10.30;9.80;;;;;;;;;;5091186;28;20483;-72
2023/01/19 05:51:17;;;;;;;10.07;9.57;;;;;;;;;;5098804;28;20032;-72
2023/01/19 05:53:42;;;;;;;10.30;9.80;;;;;;;;;;5094059;28;20360;-72
2023/01/19 05:56:08;;;;;;;10.40;9.90;;;;;;;;;;5096666;28;20043;-73
2023/01/19 05:58:34;;;;;;;10.25;9.75;;;;;;;;;;5072474;28;20036;-72
2023/01/19 06:01:06;;;;;;;10.90;10.30;;;;;;;;;;5077991;28;20479;-72
2023/01/19 06:03:32;;;;;;;10.23;9.73;;;;;;;;;;5085680;28;20369;-73
2023/01/19 06:05:57;;;;;;;11.50;10.90;;;;;;;;;;5075319;28;20031;-73
2023/01/19 06:08:22;;;;;;;11.65;11.05;;;;;;;;;;5058612;28;20025;-73
2023/01/19 06:10:48;;;;;;;10.35;9.85;;;;;;;;;;5076834;28;20024;-74
2023/01/19 06:13:13;;;;;;;10.73;10.23;;;;;;;;;;5093715;28;20031;-74
2023/01/19 06:15:38;;;;;;;9.90;9.40;;;;;;;;;;5081860;28;20031;-71
2023/01/19 06:18:04;;;;;;;11.13;10.52;;;;;;;;;;5086012;28;20483;-73
2023/01/19 06:20:29;;;;;;;10.63;10.13;;;;;;;;;;5072353;28;20475;-73
2023/01/19 06:22:59;;;;;;;10.20;9.70;;;;;;;;;;5099560;28;20046;-73
2023/01/19 06:25:24;;;;;;;11.27;10.68;;;;;;;;;;5093521;28;20032;-72
2023/01/19 06:27:50;;;;;;;10.45;9.95;;;;;;;;;;5079680;28;20028;-69
2023/01/19 06:30:16;;;;;;;10.23;9.73;;;;;;;;;;5087486;28;20029;-72
2023/01/19 06:32:41;;;;;;;9.50;9.10;;;;;;;;;;5094108;28;20102;-73
2023/01/19 06:35:07;;;;;;;9.82;9.38;;;;;;;;;;5080552;28;20024;-73
2023/01/19 06:37:35;;;;;;;9.65;9.25;;;;;;;;;;5105077;28;20061;-74
2023/01/19 06:40:00;;;;;;;10.57;10.07;;;;;;;;;;5103235;28;20111;-75
2023/01/19 06:42:26;;;;;;;10.27;9.77;;;;;;;;;;5103165;28;20091;-74
2023/01/19 06:44:51;;;;;;;9.98;9.48;;;;;;;;;;5105725;28;20393;-74
2023/01/19 06:47:16;;;;;;;9.90;9.48;;;;;;;;;;5076416;28;20019;-75
2023/01/19 06:49:42;;;;;;;9.73;9.32;;;;;;;;;;5100779;28;20394;-74
2023/01/19 06:52:09;;;;;;;9.77;9.38;;;;;;;;;;5107658;28;21270;-74
2023/01/19 06:54:34;;;;;;;9.73;9.32;;;;;;;;;;5105061;28;20022;-74
2023/01/19 06:56:59;;;;;;;10.10;9.65;;;;;;;;;;5103608;28;20032;-74
2023/01/19 06:59:25;;;;;;;9.80;9.40;;;;;;;;;;5101213;28;20506;-77
2023/01/19 07:01:50;;;;;;;10.18;9.75;;;;;;;;;;5101889;28;20046;-74
2023/01/19 07:04:15;;;;;;;10.35;9.85;;;;;;;;;;5101980;28;20099;-73
2023/01/19 07:06:41;;;;;;;9.75;9.35;;;;;;;;;;5103119;28;20174;-74
2023/01/19 07:09:09;;;;;;;10.18;9.75;;;;;;;;;;5100614;28;20016;-73
2023/01/19 07:11:35;;;;;;;10.60;10.10;;;;;;;;;;5101763;28;20020;-74
2023/01/19 07:14:00;;;;;;;10.30;9.80;;;;;;;;;;5081200;28;20023;-74
2023/01/19 07:16:25;;;;;;;10.93;10.43;;;;;;;;;;5091381;28;20042;-73
2023/01/19 07:18:51;;;;;;;10.30;9.80;;;;;;;;;;5083591;28;20024;-72
2023/01/19 07:21:18;;;;;;;10.10;9.70;;;;;;;;;;5104244;28;20018;-74
2023/01/19 07:23:43;;;;;;;10.00;9.57;;;;;;;;;;5099810;28;20023;-73
2023/01/19 07:26:09;;;;;;;10.45;9.95;;;;;;;;;;5101597;28;20382;-74
2023/01/19 07:28:35;;;;;;;10.27;9.85;;;;;;;;;;5083195;28;20022;-74
2023/01/19 07:31:02;;;;;;;10.32;9.88;;;;;;;;;;5099800;28;20031;-75
2023/01/19 07:33:28;;;;;;;10.00;9.60;;;;;;;;;;5104556;28;20019;-75
2023/01/19 07:35:53;;;;;;;10.48;9.98;;;;;;;;;;5092210;28;20679;-73
2023/01/19 07:38:20;;;;;;;10.10;9.70;;;;;;;;;;5104884;28;20431;-74
2023/01/19 07:40:45;;;;;;;10.52;10.02;;;;;;;;;;5075953;28;20487;-74
2023/01/19 07:43:11;;;;;;;10.75;10.25;;;;;;;;;;5077076;28;20016;-74
2023/01/19 07:45:36;;;;;;;10.50;10.00;;;;;;;;;;5103504;28;20011;-73
2023/01/19 07:48:02;;;;;;;10.75;10.25;;;;;;;;;;5099584;28;20105;-74
2023/01/19 07:50:28;;;;;;;10.35;9.90;;;;;;;;;;5100938;28;20096;-73
2023/01/19 07:52:54;;;;;;;10.23;9.82;;;;;;;;;;5101833;28;20043;-73
2023/01/19 07:55:22;;;;;;;10.43;9.93;;;;;;;;;;5081986;28;20044;-73
2023/01/19 07:57:50;;;;;;;10.13;9.73;;;;;;;;;;5100580;28;20031;-74
2023/01/19 08:00:18;;;;;;;10.32;9.90;;;;;;;;;;5081476;28;20027;-74
2023/01/19 08:02:43;;;;;;;10.70;10.20;;;;;;;;;;5096903;28;20015;-74
2023/01/19 08:05:09;;;;;;;10.43;9.93;;;;;;;;;;5102781;28;20024;-73
2023/01/19 08:07:34;;;;;;;10.55;10.05;;;;;;;;;;5095041;28;20051;-74
2023/01/19 08:10:00;;;;;;;10.45;9.95;;;;;;;;;;5098079;28;20038;-74
2023/01/19 08:12:25;;;;;;;10.77;10.27;;;;;;;;;;5098025;28;20455;-73
2023/01/19 08:14:50;;;;;;;10.82;10.32;;;;;;;;;;5101097;28;20028;-74
2023/01/19 08:17:16;;;;;;;10.80;10.30;;;;;;;;;;5099087;28;20082;-73
2023/01/19 08:19:42;;;;;;;10.60;10.10;;;;;;;;;;5105573;28;20152;-72
2023/01/19 08:22:07;;;;;;;10.55;10.05;;;;;;;;;;5080846;28;20015;-74
2023/01/19 08:24:32;;;;;;;10.45;9.95;;;;;;;;;;5103141;28;20466;-73
2023/01/19 08:26:59;;;;;;;10.40;9.90;;;;;;;;;;5106496;28;20480;-73
2023/01/19 08:29:25;;;;;;;10.00;9.60;;;;;;;;;;5105849;28;20055;-74
2023/01/19 08:31:51;;;;;;;10.50;10.00;;;;;;;;;;5094406;28;20028;-74
2023/01/19 08:34:17;;;;;;;10.20;9.80;;;;;;;;;;5092213;28;20446;-74
2023/01/19 08:36:42;;;;;;;10.57;10.07;;;;;;;;;;5097719;28;20096;-73
2023/01/19 08:39:10;;;;;;;10.70;10.20;;;;;;;;;;5099316;28;20030;-74
2023/01/19 08:41:36;;;;;;;10.80;10.30;;;;;;;;;;5083322;28;20023;-74
2023/01/19 08:44:02;;;;;;;10.68;10.18;;;;;;;;;;5083348;28;20016;-74
2023/01/19 08:46:28;;;;;;;10.07;9.68;;;;;;;;;;5097497;28;20016;-73
2023/01/19 08:48:53;;;;;;;10.77;10.27;;;;;;;;;;5103316;28;20065;-73
2023/01/19 08:51:20;;;;;;;9.95;9.55;;;;;;;;;;5102897;28;20016;-74
2023/01/19 08:53:45;;;;;;;10.20;9.80;;;;;;;;;;5081182;28;20013;-74
2023/01/19 08:56:12;;;;;;;10.55;10.05;;;;;;;;;;5099996;28;20510;-74
2023/01/19 08:58:38;;;;;;;10.15;9.73;;;;;;;;;;5097254;28;20081;-73
2023/01/19 09:01:06;;;;;;;10.68;10.18;;;;;;;;;;5085797;28;20036;-75
2023/01/19 09:03:32;;;;;;;10.55;10.05;;;;;;;;;;5107570;28;20054;-73
2023/01/19 09:05:57;;;;;;;10.55;10.05;;;;;;;;;;5086795;28;20471;-77
2023/01/19 09:08:22;;;;;;;10.77;10.27;;;;;;;;;;5099818;28;20032;-72
2023/01/19 09:10:50;;;;;;;10.52;10.02;;;;;;;;;;5062173;28;20019;-73
2023/01/19 09:13:16;;;;;;;10.25;9.82;;;;;;;;;;5100341;28;20019;-74
2023/01/19 09:15:42;;;;;;;10.20;9.80;;;;;;;;;;5104605;28;20030;-74
2023/01/19 09:18:12;;;;;;;10.40;9.90;;;;;;;;;;5106592;28;20053;-74
2023/01/19 09:20:38;;;;;;;10.25;9.80;;;;;;;;;;5097894;28;20028;-74
2023/01/19 09:23:04;;;;;;;10.38;9.88;;;;;;;;;;5098566;28;20028;-74
2023/01/19 09:25:30;;;;;;;10.20;9.80;;;;;;;;;;5102231;28;20012;-74
2023/01/19 09:27:55;;;;;;;10.07;9.68;;;;;;;;;;5102353;28;20016;-74
2023/01/19 09:30:21;;;;;;;10.25;9.80;;;;;;;;;;5077938;28;20073;-74
2023/01/19 09:32:46;;;;;;;9.73;9.32;;;;;;;;;;5087890;28;20070;-74
2023/01/19 09:35:12;;;;;;;10.60;10.10;;;;;;;;;;5099803;28;20416;-73
2023/01/19 09:37:37;;;;;;;10.00;9.60;;;;;;;;;;5101081;28;20031;-74
2023/01/19 09:40:03;;;;;;;10.45;9.95;;;;;;;;;;5079013;28;20031;-73
2023/01/19 09:42:34;;;;;;;9.90;9.50;;;;;;;;;;5087164;28;20482;-74
2023/01/19 09:45:01;;;;;;;10.32;9.82;;;;;;;;;;5098207;28;20194;-75
2023/01/19 09:47:28;;;;;;;10.35;9.85;;;;;;;;;;5104834;28;20020;-74
2023/01/19 09:50:00;;;;;;;10.65;10.15;;;;;;;;;;5085269;28;20028;-73
2023/01/19 09:52:26;;;;;;;10.65;10.15;;;;;;;;;;5101467;28;20030;-74
2023/01/19 09:54:53;;;;;;;10.73;10.23;;;;;;;;;;5102089;28;20032;-74
2023/01/19 09:57:19;;;;;;;10.18;9.73;;;;;;;;;;5099240;28;20506;-74
2023/01/19 09:59:48;;;;;;;10.60;10.10;;;;;;;;;;5103281;28;20095;-73
2023/01/19 10:02:13;;;;;;;10.68;10.18;;;;;;;;;;5100116;28;20016;-74
2023/01/19 10:04:40;;;;;;;10.20;9.70;;;;;;;;;;5099226;28;20072;-74
2023/01/19 10:07:05;;;;;;;10.55;10.05;;;;;;;;;;5105807;28;20478;-74
2023/01/19 10:09:33;;;;;;;10.45;9.95;;;;;;;;;;5102007;28;20031;-73
2023/01/19 10:11:59;;;;;;;10.05;9.63;;;;;;;;;;5098343;28;20039;-73
2023/01/19 10:14:33;;;;;;;10.10;9.70;;;;;;;;;;5102524;28;20045;-74
2023/01/19 10:17:04;;;;;;;9.95;9.55;;;;;;;;;;5103546;28;20025;-74
2023/01/19 10:19:32;;;;;;;10.65;10.15;;;;;;;;;;5093327;28;20423;-74
2023/01/19 10:21:59;;;;;;;10.02;9.63;;;;;;;;;;5080191;28;20069;-74
2023/01/19 10:24:37;;;;;;;11.90;11.30;;;;;;;;;;5103972;28;20038;-74
2023/01/19 10:27:08;;;;;;;10.75;10.25;;;;;;;;;;5097935;28;20534;-74
2023/01/19 10:29:37;;;;;;;10.40;9.90;;;;;;;;;;5097318;28;20336;-74
2023/01/19 10:32:06;;;;;;;10.35;9.85;;;;;;;;;;5084512;28;20043;-74
2023/01/19 10:34:31;;;;;;;10.38;9.88;;;;;;;;;;5084388;28;20015;-74
2023/01/19 10:37:01;;;;;;;9.85;9.45;;;;;;;;;;5101658;28;20489;-73
2023/01/19 10:39:26;;;;;;;9.85;9.45;;;;;;;;;;5100353;28;20024;-73
2023/01/19 10:41:52;;;;;;;10.30;9.80;;;;;;;;;;5103576;28;20082;-73
2023/01/19 10:44:25;;;;;;;11.05;10.55;;;;;;;;;;5087525;28;20488;-73
2023/01/19 10:46:53;;;;;;;10.10;9.70;;;;;;;;;;5106138;28;20044;-74
2023/01/19 10:49:24;;;;;;;10.00;9.60;;;;;;;;;;5109845;28;20047;-74
2023/01/19 10:51:49;;;;;;;10.00;9.60;;;;;;;;;;5098347;28;20177;-74
2023/01/19 10:54:15;;;;;;;10.20;9.70;;;;;;;;;;5082918;28;20490;-74
2023/01/19 10:56:41;;;;;;;10.30;9.80;;;;;;;;;;5101686;28;20059;-73
2023/01/19 10:59:26;;;;;;;10.65;10.15;;;;;;;;;;5103590;28;20119;-74
2023/01/19 11:02:10;;;;;;;10.52;10.02;;;;;;;;;;5098986;28;20134;-74
2023/01/19 11:04:35;;;;;;;10.40;9.90;;;;;;;;;;5077646;28;20387;-73
2023/01/19 11:07:16;;;;;;;10.57;10.07;;;;;;;;;;5102329;28;20028;-72
2023/01/19 11:09:41;;;;;;;9.85;9.45;;;;;;;;;;5102470;28;20023;-74
2023/01/19 11:12:14;;;;;;;10.50;10.00;;;;;;;;;;5101751;28;20125;-73
2023/01/19 11:14:39;;;;;;;10.38;9.88;;;;;;;;;;5082763;28;20555;-75
2023/01/19 11:17:13;;;;;;;9.98;9.57;;;;;;;;;;5099331;28;20031;-73
2023/01/19 11:19:39;;;;;;;9.60;9.20;;;;;;;;;;5083406;28;20042;-74
2023/01/19 11:22:20;;;;;;;10.23;9.73;;;;;;;;;;5106899;28;20475;-73
2023/01/19 11:24:45;;;;;;;10.43;9.93;;;;;;;;;;5101135;28;20374;-74
2023/01/19 11:27:15;;;;;;;10.18;9.73;;;;;;;;;;5093307;28;20024;-73
2023/01/19 11:29:45;;;;;;;10.68;10.18;;;;;;;;;;5079578;28;20024;-74
2023/01/19 11:32:18;;;;;;;10.18;9.70;;;;;;;;;;5097728;28;20027;-74
2023/01/19 11:34:43;;;;;;;10.10;9.70;;;;;;;;;;5100810;28;20019;-74
2023/01/19 11:37:17;;;;;;;10.80;10.30;;;;;;;;;;5104830;28;20038;-74
2023/01/19 11:39:42;;;;;;;;;;;;;;;;;;5101547;28;20483;-73
2023/01/19 11:42:11;;;;;;;9.93;9.52;;;;;;;;;;5097069;28;20398;-74
2023/01/19 11:44:41;;;;;;;9.70;9.30;;;;;;;;;;5095495;28;20772;-74
2023/01/19 11:47:18;;;;;;;10.18;9.68;;;;;;;;;;5098023;28;20479;-73
2023/01/19 11:49:52;;;;;;;10.32;9.82;;;;;;;;;;5074672;28;20115;-74
2023/01/19 11:52:24;;;;;;;10.07;9.65;;;;;;;;;;5096519;28;20020;-74
2023/01/19 11:54:59;;;;;;;9.77;9.32;;;;;;;;;;5097823;28;20032;-75
2023/01/19 11:57:24;;;;;;;10.27;9.77;;;;;;;;;;5083813;28;20027;-74
2023/01/19 11:59:49;;;;;;;10.00;9.60;;;;;;;;;;5100888;28;20020;-74
2023/01/19 12:02:25;;;;;;;9.88;9.48;;;;;;;;;;5102907;28;20015;-74
2023/01/19 12:04:53;;;;;;;10.48;9.98;;;;;;;;;;5101756;28;20028;-74
2023/01/19 12:07:22;;;;;;;9.98;9.57;;;;;;;;;;5101180;28;20460;-74
2023/01/19 12:09:50;;;;;;;10.05;9.65;;;;;;;;;;5086330;28;20024;-74
2023/01/19 12:12:25;;;;;;;10.15;9.73;;;;;;;;;;5083170;28;20074;-75
2023/01/19 12:14:53;;;;;;;10.32;9.82;;;;;;;;;;5082632;28;20482;-75
2023/01/19 12:17:38;;;;;;;9.98;9.57;;;;;;;;;;5096055;28;20024;-74
2023/01/19 12:20:22;;;;;;;10.43;9.93;;;;;;;;;;5101173;28;20470;-73
2023/01/19 12:22:51;;;;;;;10.57;10.07;;;;;;;;;;5086852;28;20022;-76
2023/01/19 12:25:21;;;;;;;10.85;10.35;;;;;;;;;;5079232;28;20031;-73
2023/01/19 12:27:48;;;;;;;10.07;9.68;;;;;;;;;;5100852;28;20016;-74
2023/01/19 12:30:24;;;;;;;10.00;9.60;;;;;;;;;;5084873;28;20539;-73
2023/01/19 12:32:50;;;;;;;9.95;9.55;;;;;;;;;;5101152;28;20031;-74
2023/01/19 12:35:34;;;;;;;10.10;9.65;;;;;;;;;;5101005;28;20020;-74
2023/01/19 12:37:59;;;;;;;11.18;10.68;;;;;;;;;;5098469;28;20384;-74
2023/01/19 12:40:30;;;;;;;9.93;9.52;;;;;;;;;;5109655;28;20066;-74
2023/01/19 12:43:03;;;;;;;10.60;10.10;;;;;;;;;;5090190;28;20088;-75
2023/01/19 12:45:34;;;;;;;10.63;10.13;;;;;;;;;;5079834;28;20045;-73
2023/01/19 12:48:00;;;;;;;10.50;10.00;;;;;;;;;;5102791;28;20083;-74
2023/01/19 12:50:28;;;;;;;10.50;10.00;;;;;;;;;;5100244;28;20043;-74
2023/01/19 12:53:01;;;;;;;10.70;10.20;;;;;;;;;;5103208;28;20035;-74
2023/01/19 12:55:29;;;;;;;9.90;9.50;;;;;;;;;;5106724;28;20124;-74
2023/01/19 12:57:58;;;;;;;9.75;9.35;;;;;;;;;;5105858;28;20023;-74
2023/01/19 13:00:32;;;;;;;10.43;9.93;;;;;;;;;;5085490;28;20039;-75
2023/01/19 13:02:58;;;;;;;10.10;9.68;;;;;;;;;;5085596;28;20024;-74
2023/01/19 13:05:30;;;;;;;10.18;9.68;;;;;;;;;;5085991;28;20035;-73
2023/01/19 13:08:04;;;;;;;9.90;9.50;;;;;;;;;;5103059;28;20015;-74
2023/01/19 13:10:29;;;;;;;;;;;;;;;;;;5098111;28;20043;-74
2023/01/19 13:13:13;;;;;;;10.10;9.70;;;;;;;;;;5083704;28;20337;-74
2023/01/19 13:15:39;;;;;;;9.98;9.55;;;;;;;;;;5104701;28;20030;-73
2023/01/19 13:18:06;;;;;;;10.45;9.95;;;;;;;;;;5106489;28;20099;-74
2023/01/19 13:20:52;;;;;;;9.75;9.35;;;;;;;;;;5105171;28;20517;-74
2023/01/19 13:23:20;;;;;;;10.30;9.80;;;;;;;;;;5099823;28;20086;-75
2023/01/19 13:25:50;;;;;;;10.00;9.60;;;;;;;;;;5102364;28;20043;-75
2023/01/19 13:28:17;;;;;;;10.38;9.88;;;;;;;;;;5082564;28;20378;-74
2023/01/19 13:31:03;;;;;;;10.80;10.30;;;;;;;;;;5085888;28;20020;-74
2023/01/19 13:33:35;;;;;;;9.90;9.50;;;;;;;;;;5103331;28;20023;-74
2023/01/19 13:36:00;;;;;;;10.52;10.02;;;;;;;;;;5106478;28;20035;-75
2023/01/19 13:38:26;;;;;;;10.98;10.48;;;;;;;;;;5098875;28;20016;-74
2023/01/19 13:40:53;;;;;;;10.40;9.90;;;;;;;;;;5100379;28;20019;-73
2023/01/19 13:43:23;;;;;;;9.90;9.50;;;;;;;;;;5103523;28;20027;-75
2023/01/19 13:45:49;;;;;;;10.38;9.88;;;;;;;;;;5101638;28;20035;-74
2023/01/19 13:48:16;;;;;;;10.13;9.68;;;;;;;;;;5106356;28;20483;-74
2023/01/19 13:50:44;;;;;;;10.57;10.07;;;;;;;;;;5102503;28;20448;-74
2023/01/19 13:53:17;;;;;;;10.50;10.00;;;;;;;;;;5089259;28;20016;-74
2023/01/19 13:55:42;;;;;;;10.02;9.60;;;;;;;;;;5105537;28;20047;-74
2023/01/19 13:58:19;;;;;;;10.30;9.80;;;;;;;;;;5102918;28;20431;-75
2023/01/19 14:00:44;;;;;;;10.30;9.80;;;;;;;;;;5100955;28;20394;-74
2023/01/19 14:03:11;;;;;;;10.43;9.93;;;;;;;;;;5088745;28;20012;-74
2023/01/19 14:05:37;;;;;;;10.00;9.60;;;;;;;;;;5099770;28;20019;-75
2023/01/19 14:08:12;;;;;;;10.45;9.95;;;;;;;;;;5097262;28;20026;-75
2023/01/19 14:10:37;;;;;;;;;;;;;;;;;;5103911;28;20080;-73
2023/01/19 14:13:15;;;;;;;10.57;10.07;;;;;;;;;;5105667;28;20371;-76
2023/01/19 14:15:42;;;;;;;9.80;9.40;;;;;;;;;;5102339;28;20050;-75
2023/01/19 14:18:07;;;;;;;10.27;9.77;;;;;;;;;;5094992;28;20024;-74
2023/01/19 14:20:35;;;;;;;10.38;9.88;;;;;;;;;;5074419;28;20081;-74
2023/01/19 14:23:01;;;;;;;10.13;9.68;;;;;;;;;;5101792;28;20549;-74
2023/01/19 14:25:26;;;;;;;10.38;9.88;;;;;;;;;;5100335;28;20065;-74
2023/01/19 14:28:12;;;;;;;10.77;10.27;;;;;;;;;;5100806;28;20489;-74
2023/01/19 14:30:39;;;;;;;9.82;9.43;;;;;;;;;;5046625;28;20058;-75
2023/01/19 14:33:04;;;;;;;10.68;10.18;;;;;;;;;;5078697;28;20028;-75
2023/01/19 14:35:30;;;;;;;10.13;9.70;;;;;;;;;;5095807;28;20030;-76
2023/01/19 14:37:56;;;;;;;10.30;9.80;;;;;;;;;;5102882;28;20093;-74
2023/01/19 14:40:23;;;;;;;10.30;9.80;;;;;;;;;;5094748;28;20536;-76
2023/01/19 14:42:48;;;;;;;10.20;9.70;;;;;;;;;;5082124;28;20020;-75
2023/01/19 14:45:14;;;;;;;10.30;9.80;;;;;;;;;;5099250;28;20024;-75